createdAt,value
2019-05-01T00:01:48.005Z,129.70
2019-05-01T00:04:29.168Z,130.73
2019-05-01T00:07:32.720Z,133.63
2019-05-01T00:09:53.573Z,135.67
2019-05-01T00:11:58.425Z,133.20
2019-05-01T00:17:41.138Z,153.57
2019-05-01T00:19:42.579Z,148.63
2019-05-01T00:22:28.985Z,154.83
2019-05-01T00:24:54.866Z,161.97
2019-05-01T00:27:38.703Z,152.27
2019-05-01T00:30:00.091Z,164.63
2019-05-01T00:32:21.585Z,171.00
2019-05-01T00:34:42.516Z,173.10
2019-05-01T00:37:06.024Z,172.33
2019-05-01T00:39:11.988Z,171.77
2019-05-01T00:41:35.751Z,167.63
2019-05-01T00:44:24.310Z,172.97
2019-05-01T00:48:54.402Z,170.63
2019-05-01T00:51:19.041Z,168.77
2019-05-01T00:53:23.318Z,159.10
2019-05-01T00:55:45.218Z,146.73
2019-05-01T00:57:58.992Z,156.33
2019-05-01T01:00:14.533Z,154.70
2019-05-01T01:02:51.419Z,152.67
2019-05-01T01:05:23.997Z,142.67
2019-05-01T01:07:40.620Z,140.27
2019-05-01T01:10:24.865Z,148.60
2019-05-01T01:13:07.502Z,136.57
2019-05-01T01:15:12.081Z,130.57
2019-05-01T01:17:16.144Z,127.83
2019-05-01T01:19:57.300Z,132.57
2019-05-01T01:22:01.459Z,134.00
2019-05-01T01:24:48.475Z,140.60
2019-05-01T01:26:45.792Z,131.83
2019-05-01T01:31:50.517Z,127.37
2019-05-01T01:34:14.781Z,132.00
2019-05-01T01:36:59.109Z,132.00
2019-05-01T01:39:18.246Z,117.57
2019-05-01T01:41:20.082Z,142.13
2019-05-01T01:44:10.689Z,123.77
2019-05-01T01:49:12.267Z,126.50
2019-05-01T01:51:16.381Z,128.20
2019-05-01T01:53:37.137Z,126.00
2019-05-01T01:55:54.629Z,134.60
2019-05-01T01:57:58.855Z,119.07
2019-05-01T02:00:04.628Z,125.93
2019-05-01T02:02:45.665Z,123.20
2019-05-01T02:05:23.563Z,126.77
2019-05-01T02:07:27.715Z,127.67
2019-05-01T02:09:32.092Z,137.63
2019-05-01T02:11:36.252Z,151.70
2019-05-01T02:13:49.942Z,134.50
2019-05-01T02:15:54.029Z,140.40
2019-05-01T02:18:02.367Z,129.93
2019-05-01T02:20:04.861Z,154.93
2019-05-01T02:22:08.873Z,130.07
2019-05-01T02:24:12.985Z,140.90
2019-05-01T02:26:19.399Z,130.97
2019-05-01T02:28:39.869Z,146.80
2019-05-01T02:30:46.787Z,130.77
2019-05-01T02:32:52.431Z,140.33
2019-05-01T02:34:58.197Z,140.17
2019-05-01T02:37:04.033Z,133.50
2019-05-01T02:39:10.211Z,146.00
2019-05-01T02:41:16.737Z,132.77
2019-05-01T02:43:23.358Z,133.97
2019-05-01T02:45:28.270Z,151.30
2019-05-01T02:47:35.169Z,141.93
2019-05-01T02:49:46.716Z,164.47
2019-05-01T02:51:51.862Z,153.13
2019-05-01T02:53:55.997Z,146.90
2019-05-01T02:56:34.822Z,160.87
2019-05-01T02:58:40.457Z,145.23
2019-05-01T03:01:17.210Z,156.83
2019-05-01T03:03:17.621Z,167.83
2019-05-01T03:05:21.774Z,160.17
2019-05-01T03:07:28.343Z,173.17
2019-05-01T03:09:33.092Z,174.07
2019-05-01T03:12:07.560Z,161.37
2019-05-01T03:14:36.560Z,184.87
2019-05-01T03:20:16.490Z,173.83
2019-05-01T03:22:55.030Z,173.33
2019-05-01T03:25:05.311Z,163.07
2019-05-01T03:27:39.597Z,175.07
2019-05-01T03:29:50.958Z,160.17
2019-05-01T03:32:19.385Z,164.87
2019-05-01T03:34:56.942Z,173.77
2019-05-01T03:37:41.248Z,178.47
2019-05-01T03:40:12.483Z,155.30
2019-05-01T03:42:35.822Z,151.27
2019-05-01T03:45:21.540Z,142.00
2019-05-01T03:47:53.265Z,140.93
2019-05-01T03:50:34.913Z,140.37
2019-05-01T03:53:31.067Z,135.83
2019-05-01T03:55:41.701Z,132.07
2019-05-01T03:58:15.406Z,123.23
2019-05-01T04:01:10.433Z,119.03
2019-05-01T04:06:49.306Z,117.57
2019-05-01T04:09:30.943Z,120.13
2019-05-01T04:11:58.885Z,124.17
2019-05-01T04:14:42.485Z,129.77
2019-05-01T04:17:18.107Z,138.80
2019-05-01T04:20:19.863Z,134.67
2019-05-01T04:23:22.179Z,132.97
2019-05-01T04:25:29.156Z,125.70
2019-05-01T04:28:04.159Z,135.50
2019-05-01T04:31:09.411Z,131.50
2019-05-01T04:33:48.727Z,125.83
2019-05-01T04:36:31.998Z,131.57
2019-05-01T04:38:31.614Z,127.00
2019-05-01T04:40:35.847Z,144.40
2019-05-01T04:42:40.182Z,127.97
2019-05-01T04:44:44.557Z,115.63
2019-05-01T04:46:49.639Z,129.03
2019-05-01T04:48:53.934Z,118.97
2019-05-01T04:50:58.018Z,132.90
2019-05-01T04:53:02.201Z,124.27
2019-05-01T04:55:06.850Z,119.53
2019-05-01T04:57:11.550Z,125.53
2019-05-01T05:01:47.792Z,120.80
2019-05-01T05:06:54.618Z,121.70
2019-05-01T05:35:42.711Z,129.33
2019-05-01T05:38:42.442Z,109.77
2019-05-01T05:41:35.019Z,100.87
2019-05-01T05:43:39.388Z,100.03
2019-05-01T05:45:44.143Z,97.13
2019-05-01T05:47:48.481Z,88.63
2019-05-01T05:49:52.836Z,87.83
2019-05-01T05:56:08.777Z,100.37
2019-05-01T05:58:52.087Z,79.53
2019-05-01T06:01:40.276Z,79.60
2019-05-01T06:04:35.735Z,90.33
2019-05-01T06:17:50.070Z,90.53
2019-05-01T06:21:21.393Z,86.53
2019-05-01T06:37:15.861Z,88.37
2019-05-01T06:40:18.781Z,96.33
2019-05-01T06:43:08.208Z,77.67
2019-05-01T06:49:07.538Z,78.97
2019-05-01T06:51:26.390Z,74.27
2019-05-01T06:54:11.091Z,68.97
2019-05-01T06:56:37.216Z,69.60
2019-05-01T07:02:16.321Z,72.67
2019-05-01T07:04:42.999Z,73.17
2019-05-01T07:07:06.798Z,67.80
2019-05-01T07:09:27.348Z,66.10
2019-05-01T07:11:23.872Z,55.70
2019-05-01T07:13:28.322Z,69.77
2019-05-01T07:16:22.369Z,67.00
2019-05-01T07:19:40.313Z,63.80
2019-05-01T07:22:22.961Z,71.77
2019-05-01T07:25:05.941Z,70.37
2019-05-01T07:27:25.090Z,70.23
2019-05-01T07:30:15.898Z,67.80
2019-05-01T07:32:54.331Z,63.43
2019-05-01T07:35:02.170Z,57.53
2019-05-01T07:37:05.357Z,67.23
2019-05-01T07:39:15.916Z,61.50
2019-05-01T07:41:42.114Z,61.00
2019-05-01T07:44:23.811Z,60.47
2019-05-01T07:47:17.913Z,63.40
2019-05-01T07:50:12.620Z,71.20
2019-05-01T07:52:22.247Z,62.17
2019-05-01T07:54:47.251Z,82.80
2019-05-01T07:57:22.973Z,72.67
2019-05-01T08:00:10.806Z,75.80
2019-05-01T08:02:33.044Z,63.20
2019-05-01T08:04:59.843Z,63.30
2019-05-01T08:07:22.673Z,65.67
2019-05-01T08:09:51.588Z,61.97
2019-05-01T08:12:39.272Z,60.30
2019-05-01T08:15:27.684Z,65.43
2019-05-01T08:18:19.611Z,60.67
2019-05-01T08:21:08.385Z,64.90
2019-05-01T08:23:42.650Z,54.10
2019-05-01T08:26:14.483Z,63.23
2019-05-01T08:28:42.631Z,59.33
2019-05-01T08:31:06.542Z,60.67
2019-05-01T08:33:31.705Z,63.53
2019-05-01T08:35:43.419Z,59.80
2019-05-01T08:41:03.275Z,56.43
2019-05-01T08:43:40.207Z,57.60
2019-05-01T08:46:02.101Z,65.87
2019-05-01T08:48:42.352Z,67.67
2019-05-01T08:51:07.349Z,66.27
2019-05-01T08:53:42.201Z,66.97
2019-05-01T08:56:38.522Z,71.10
2019-05-01T08:59:49.305Z,60.73
2019-05-01T09:02:18.160Z,60.80
2019-05-01T09:05:02.137Z,61.10
2019-05-01T09:07:24.001Z,63.17
2019-05-01T09:09:53.253Z,64.27
2019-05-01T09:12:13.598Z,62.47
2019-05-01T09:14:59.093Z,60.07
2019-05-01T09:17:40.904Z,64.43
2019-05-01T09:20:00.902Z,57.13
2019-05-01T09:22:17.112Z,55.90
2019-05-01T09:24:42.045Z,59.93
2019-05-01T09:27:07.285Z,63.57
2019-05-01T09:29:40.524Z,65.07
2019-05-01T09:32:10.081Z,60.17
2019-05-01T09:34:13.961Z,61.20
2019-05-01T09:39:26.922Z,63.83
2019-05-01T09:41:38.029Z,54.03
2019-05-01T09:43:37.453Z,66.17
2019-05-01T09:45:56.249Z,55.67
2019-05-01T09:48:03.695Z,55.90
2019-05-01T09:50:08.224Z,56.27
2019-05-01T09:52:49.087Z,58.03
2019-05-01T09:55:31.245Z,64.57
2019-05-01T09:57:57.239Z,56.30
2019-05-01T10:00:01.697Z,56.37
2019-05-01T10:02:20.035Z,59.03
2019-05-01T10:04:25.504Z,51.17
2019-05-01T10:06:30.122Z,55.63
2019-05-01T10:08:41.790Z,53.00
2019-05-01T10:11:04.823Z,53.73
2019-05-01T10:13:43.602Z,63.70
2019-05-01T10:15:47.226Z,57.27
2019-05-01T10:17:51.352Z,50.57
2019-05-01T10:20:29.590Z,53.23
2019-05-01T10:22:59.488Z,46.03
2019-05-01T10:25:25.396Z,53.23
2019-05-01T10:28:02.048Z,48.57
2019-05-01T10:30:36.371Z,47.77
2019-05-01T10:33:10.272Z,52.80
2019-05-01T10:35:42.305Z,53.70
2019-05-01T10:38:28.030Z,52.70
2019-05-01T10:40:26.978Z,47.40
2019-05-01T10:42:30.265Z,57.13
2019-05-01T10:44:34.756Z,55.47
2019-05-01T10:47:03.674Z,52.23
2019-05-01T10:49:37.681Z,56.83
2019-05-01T10:51:39.299Z,57.63
2019-05-01T10:53:43.395Z,57.90
2019-05-01T10:55:47.879Z,62.67
2019-05-01T10:57:52.173Z,55.63
2019-05-01T11:00:49.873Z,61.27
2019-05-01T11:02:57.728Z,62.83
2019-05-01T11:08:11.249Z,61.97
2019-05-01T11:10:47.512Z,62.30
2019-05-01T11:13:44.107Z,65.10
2019-05-01T11:15:48.621Z,57.33
2019-05-01T11:17:52.949Z,73.57
2019-05-01T11:20:11.497Z,68.40
2019-05-01T11:22:26.143Z,65.60
2019-05-01T11:24:30.931Z,65.37
2019-05-01T11:26:55.025Z,63.17
2019-05-01T11:29:15.485Z,65.90
2019-05-01T11:31:50.469Z,72.53
2019-05-01T11:34:19.920Z,62.03
2019-05-01T11:36:37.568Z,73.57
2019-05-01T11:39:05.544Z,76.97
2019-05-01T11:41:14.619Z,64.37
2019-05-01T11:46:36.175Z,70.13
2019-05-01T11:52:00.844Z,68.60
2019-05-01T11:54:58.179Z,66.23
2019-05-01T12:38:02.934Z,58.20
2019-05-01T12:40:07.427Z,57.93
2019-05-01T12:42:30.611Z,68.60
2019-05-01T12:44:23.830Z,59.30
2019-05-01T12:47:13.462Z,61.23
2019-05-01T12:49:26.609Z,63.37
2019-05-01T12:52:32.931Z,52.90
2019-05-01T12:55:36.774Z,70.53
2019-05-01T12:58:02.153Z,60.93
2019-05-01T13:03:46.049Z,57.97
2019-05-01T13:05:50.255Z,58.27
2019-05-01T13:08:44.399Z,62.73
2019-05-01T13:10:55.103Z,60.97
2019-05-01T13:16:11.301Z,59.50
2019-05-01T13:19:58.995Z,59.73
2019-05-01T13:21:02.439Z,69.50
2019-05-01T13:24:19.828Z,58.07
2019-05-01T13:26:38.415Z,58.07
2019-05-01T13:28:49.566Z,58.47
2019-05-01T13:31:00.550Z,67.10
2019-05-01T13:33:04.768Z,69.27
2019-05-01T13:35:48.153Z,62.63
2019-05-01T13:37:51.313Z,67.27
2019-05-01T13:40:03.692Z,75.20
2019-05-01T13:42:09.075Z,61.40
2019-05-01T13:44:24.630Z,59.77
2019-05-01T13:46:23.849Z,70.83
2019-05-01T13:48:28.425Z,61.73
2019-05-01T13:54:31.311Z,60.23
2019-05-01T13:57:45.062Z,69.00
2019-05-01T14:00:33.157Z,64.73
2019-05-01T14:03:24.932Z,58.13
2019-05-01T14:06:30.656Z,73.70
2019-05-01T14:08:34.864Z,66.13
2019-05-01T14:11:16.355Z,68.43
2019-05-01T14:13:43.152Z,63.20
2019-05-01T14:19:32.594Z,58.03
2019-05-01T14:22:38.896Z,69.20
2019-05-01T14:25:40.834Z,64.77
2019-05-01T14:28:43.427Z,63.07
2019-05-01T14:32:07.892Z,53.33
2019-05-01T14:34:12.043Z,54.37
2019-05-01T14:37:05.108Z,59.93
2019-05-01T14:42:48.872Z,62.87
2019-05-01T14:52:03.773Z,57.60
2019-05-01T15:20:12.053Z,53.70
2019-05-01T15:23:29.649Z,57.23
2019-05-01T15:26:13.352Z,56.83
2019-05-01T15:32:14.955Z,53.17
2019-05-01T16:05:47.283Z,53.93
2019-05-01T16:38:25.694Z,54.63
2019-05-01T16:42:07.428Z,55.40
2019-05-01T16:44:31.853Z,57.90
2019-05-01T17:02:40.988Z,58.70
2019-05-01T17:05:58.700Z,63.83
2019-05-01T17:39:44.185Z,64.80
2019-05-01T17:42:37.651Z,61.63
2019-05-01T17:44:59.647Z,71.17
2019-05-01T17:47:37.661Z,75.27
2019-05-01T17:50:28.906Z,65.47
2019-05-01T17:56:28.822Z,71.30
2019-05-01T17:58:58.883Z,79.50
2019-05-01T18:02:10.174Z,71.93
2019-05-01T18:04:41.047Z,81.93
2019-05-01T18:09:41.181Z,69.63
2019-05-01T18:12:33.701Z,85.77
2019-05-01T18:14:54.580Z,72.93
2019-05-01T18:17:40.399Z,69.47
2019-05-01T18:20:41.210Z,95.10
2019-05-01T18:30:05.400Z,74.77
2019-05-01T18:33:00.149Z,80.33
2019-05-01T18:35:34.426Z,74.93
2019-05-01T18:41:12.537Z,87.80
2019-05-01T18:43:51.868Z,78.67
2019-05-01T18:46:24.093Z,79.10
2019-05-01T18:48:57.145Z,82.80
2019-05-01T18:51:46.946Z,86.73
2019-05-01T18:57:49.655Z,85.73
2019-05-01T19:00:13.004Z,90.20
2019-05-01T19:02:59.683Z,85.10
2019-05-01T19:05:14.429Z,90.37
2019-05-01T19:07:39.531Z,93.20
2019-05-01T19:10:13.475Z,89.90
2019-05-01T19:12:48.996Z,90.13
2019-05-01T19:15:17.416Z,99.93
2019-05-01T19:17:43.166Z,97.80
2019-05-01T19:20:31.696Z,95.07
2019-05-01T19:23:27.607Z,89.40
2019-05-01T19:26:06.594Z,90.60
2019-05-01T19:28:51.334Z,85.97
2019-05-01T19:31:43.897Z,91.33
2019-05-01T19:33:54.302Z,86.27
2019-05-01T19:36:59.294Z,92.70
2019-05-01T19:39:22.665Z,86.30
2019-05-01T19:48:00.029Z,89.13
2019-05-01T19:53:02.862Z,80.97
2019-05-01T19:55:46.506Z,83.20
2019-05-01T19:58:12.073Z,69.00
2019-05-01T20:00:32.845Z,67.13
2019-05-01T20:03:15.856Z,69.30
2019-05-01T20:05:49.896Z,78.27
2019-05-01T20:11:31.846Z,78.20
2019-05-01T20:14:07.142Z,70.07
2019-05-01T20:16:35.531Z,71.47
2019-05-01T20:19:15.135Z,68.33
2019-05-01T20:21:33.687Z,65.97
2019-05-01T20:26:14.183Z,59.87
2019-05-01T20:28:52.974Z,59.70
2019-05-01T20:31:45.784Z,59.67
2019-05-01T20:34:21.399Z,57.87
2019-05-01T20:37:02.680Z,49.00
2019-05-01T20:39:39.587Z,46.73
2019-05-01T20:42:31.999Z,50.57
2019-05-01T20:45:08.398Z,47.57
2019-05-01T20:47:45.537Z,53.77
2019-05-01T20:50:02.395Z,50.57
2019-05-01T20:52:24.153Z,58.87
2019-05-01T20:54:36.196Z,44.00
2019-05-01T20:56:51.641Z,53.53
2019-05-01T20:59:17.064Z,51.30
2019-05-01T21:01:28.157Z,47.20
2019-05-01T21:03:45.487Z,48.87
2019-05-01T21:06:43.651Z,41.60
2019-05-01T21:09:46.756Z,44.90
2019-05-01T21:12:26.421Z,47.37
2019-05-01T21:15:01.062Z,55.40
2019-05-01T21:17:25.666Z,48.03
2019-05-01T21:19:51.449Z,43.00
2019-05-01T21:22:33.302Z,47.30
2019-05-01T21:25:14.908Z,45.17
2019-05-01T21:28:01.488Z,39.10
2019-05-01T21:30:45.846Z,42.83
2019-05-01T21:35:48.368Z,46.30
2019-05-01T21:38:36.031Z,40.90
2019-05-01T21:43:57.810Z,32.43
2019-05-01T21:46:22.730Z,44.80
2019-05-01T21:51:08.732Z,38.70
2019-05-01T21:53:42.785Z,42.77
2019-05-01T21:56:06.195Z,41.23
2019-05-01T21:58:59.533Z,37.73
2019-05-01T22:01:42.188Z,44.53
2019-05-01T22:04:09.789Z,40.13
2019-05-01T22:06:39.377Z,36.33
2019-05-01T22:09:15.171Z,41.40
2019-05-01T22:11:55.240Z,42.33
2019-05-01T22:14:07.589Z,35.47
2019-05-01T22:16:32.663Z,41.17
2019-05-01T22:18:56.657Z,41.60
2019-05-01T22:21:46.981Z,42.40
2019-05-01T22:24:29.929Z,48.40
2019-05-01T22:27:23.689Z,41.50
2019-05-01T22:30:16.501Z,42.87
2019-05-01T22:32:34.078Z,49.70
2019-05-01T22:35:30.773Z,40.83
2019-05-01T22:38:03.071Z,44.10
2019-05-01T22:40:15.853Z,40.67
2019-05-01T22:43:02.347Z,42.67
2019-05-01T22:45:17.492Z,49.00
2019-05-01T22:47:32.017Z,48.57
2019-05-01T22:49:40.062Z,50.67
2019-05-01T22:52:02.208Z,49.60
2019-05-01T22:54:23.522Z,50.30
2019-05-01T22:59:57.396Z,62.13
2019-05-01T23:02:24.236Z,51.63
2019-05-01T23:04:56.842Z,53.57
2019-05-01T23:07:34.558Z,61.00
2019-05-01T23:10:03.318Z,55.60
2019-05-01T23:12:17.372Z,61.83
2019-05-01T23:15:05.394Z,55.10
2019-05-01T23:18:15.242Z,71.07
2019-05-01T23:20:18.964Z,58.30
2019-05-01T23:22:43.427Z,64.73
2019-05-01T23:25:01.701Z,67.27
2019-05-01T23:27:05.744Z,71.50
2019-05-01T23:29:09.767Z,54.33
2019-05-01T23:31:20.374Z,65.40
2019-05-01T23:33:45.865Z,62.27
2019-05-01T23:35:54.798Z,58.77
2019-05-01T23:38:13.756Z,62.30
2019-05-01T23:40:19.230Z,55.10
2019-05-01T23:42:43.853Z,63.13
2019-05-01T23:44:54.701Z,60.90
2019-05-01T23:47:20.612Z,65.20
2019-05-01T23:49:30.548Z,63.37
2019-05-01T23:51:50.527Z,64.87
2019-05-01T23:54:23.828Z,53.70
2019-05-01T23:56:41.586Z,63.30
2019-05-01T23:58:49.088Z,52.80
